createdAt,value
2022-09-02T00:01:59.150Z,98456.88
2022-09-02T00:06:02.812Z,98464.88
2022-09-02T00:10:05.344Z,98468.50
2022-09-02T00:14:14.980Z,98460.78
2022-09-02T00:18:18.724Z,98462.84
2022-09-02T00:22:21.454Z,98449.06
2022-09-02T00:26:23.831Z,98440.47
2022-09-02T00:30:27.907Z,98444.41
2022-09-02T00:34:30.453Z,98453.91
2022-09-02T00:38:35.040Z,98442.38
2022-09-02T00:42:37.949Z,98440.94
2022-09-02T00:46:40.895Z,98440.63
2022-09-02T00:50:44.307Z,98451.28
2022-09-02T00:54:52.797Z,98445.53
2022-09-02T00:58:58.376Z,98436.25
2022-09-02T01:03:07.180Z,98441.13
2022-09-02T01:07:11.178Z,98448.25
2022-09-02T01:11:13.870Z,98447.13
2022-09-02T01:15:16.812Z,98439.31
2022-09-02T01:19:26.175Z,98443.66
2022-09-02T01:23:31.190Z,98449.47
2022-09-02T01:27:37.444Z,98455.63
2022-09-02T01:31:40.181Z,98460.81
2022-09-02T01:35:45.427Z,98464.69
2022-09-02T01:39:53.603Z,98452.56
2022-09-02T01:43:56.715Z,98460.94
2022-09-02T01:47:59.478Z,98457.78
2022-09-02T01:52:03.220Z,98452.72
2022-09-02T01:56:09.264Z,98457.56
2022-09-02T02:00:13.240Z,98455.50
2022-09-02T02:04:16.227Z,98453.59
2022-09-02T02:08:19.993Z,98451.53
2022-09-02T02:12:26.483Z,98453.94
2022-09-02T02:16:33.756Z,98452.19
2022-09-02T02:20:38.316Z,98448.13
2022-09-02T02:24:42.719Z,98452.81
2022-09-02T02:28:45.864Z,98457.75
2022-09-02T02:32:48.935Z,98452.03
2022-09-02T02:36:53.914Z,98446.34
2022-09-02T02:40:57.727Z,98442.94
2022-09-02T02:45:01.944Z,98447.25
2022-09-02T02:49:05.928Z,98439.50
2022-09-02T02:53:09.343Z,98427.69
2022-09-02T02:57:16.022Z,98437.84
2022-09-02T03:01:19.489Z,98429.22
2022-09-02T03:05:22.239Z,98428.66
2022-09-02T03:09:24.507Z,98431.91
2022-09-02T03:13:29.583Z,98425.41
2022-09-02T03:17:35.960Z,98426.28
2022-09-02T03:21:39.134Z,98414.97
2022-09-02T03:25:44.925Z,98419.97
2022-09-02T03:30:09.827Z,98419.38
2022-09-02T03:34:13.926Z,98422.16
2022-09-02T03:38:16.171Z,98405.84
2022-09-02T03:42:20.326Z,98408.94
2022-09-02T03:46:27.059Z,98416.22
2022-09-02T03:50:36.521Z,98414.28
2022-09-02T03:54:39.709Z,98402.03
2022-09-02T03:58:45.486Z,98411.97
2022-09-02T04:02:50.139Z,98409.47
2022-09-02T04:06:55.690Z,98414.38
2022-09-02T04:10:57.841Z,98404.72
2022-09-02T04:15:05.599Z,98408.69
2022-09-02T04:19:09.827Z,98402.72
2022-09-02T04:23:14.161Z,98409.09
2022-09-02T04:27:18.875Z,98414.66
2022-09-02T04:31:23.296Z,98414.53
2022-09-02T04:35:26.248Z,98422.03
2022-09-02T04:39:28.694Z,98426.09
2022-09-02T04:43:31.917Z,98426.81
2022-09-02T04:47:34.578Z,98428.78
2022-09-02T04:51:38.691Z,98430.97
2022-09-02T04:55:43.388Z,98425.69
2022-09-02T04:59:48.337Z,98440.31
2022-09-02T05:03:51.909Z,98441.09
2022-09-02T05:07:56.330Z,98452.84
2022-09-02T05:11:58.808Z,98463.41
2022-09-02T05:16:07.609Z,98456.03
2022-09-02T05:20:10.689Z,98455.53
2022-09-02T05:24:14.571Z,98460.81
2022-09-02T05:28:17.975Z,98467.72
2022-09-02T05:32:21.014Z,98463.13
2022-09-02T05:36:24.917Z,98457.66
2022-09-02T05:40:28.972Z,98441.69
2022-09-02T05:44:32.259Z,98447.06
2022-09-02T05:48:58.289Z,98441.59
2022-09-02T05:53:00.521Z,98446.25
2022-09-02T05:57:09.299Z,98450.97
2022-09-02T06:01:18.149Z,98445.63
2022-09-02T06:05:20.466Z,98460.72
2022-09-02T06:09:30.010Z,98474.88
2022-09-02T06:13:37.835Z,98489.16
2022-09-02T06:17:42.306Z,98489.41
2022-09-02T06:21:47.019Z,98490.34
2022-09-02T06:25:50.722Z,98489.84
2022-09-02T06:29:55.141Z,98495.50
2022-09-02T06:34:03.422Z,98499.34
2022-09-02T06:38:09.161Z,98499.53
2022-09-02T06:42:13.926Z,98490.47
2022-09-02T06:46:32.111Z,98481.53
2022-09-02T06:50:45.336Z,98484.03
2022-09-02T06:55:01.907Z,98473.31
2022-09-02T06:59:06.069Z,98480.19
2022-09-02T07:03:37.667Z,98492.84
2022-09-02T07:07:42.452Z,98499.34
2022-09-02T07:11:49.231Z,98493.44
2022-09-02T07:15:52.770Z,98462.00
2022-09-02T07:19:59.408Z,98457.38
2022-09-02T07:24:03.656Z,98455.69
2022-09-02T07:28:08.286Z,98453.88
2022-09-02T07:32:11.716Z,98458.22
2022-09-02T07:36:15.371Z,98471.47
2022-09-02T07:40:18.893Z,98474.41
2022-09-02T07:44:23.990Z,98471.50
2022-09-02T07:48:29.681Z,98467.34
2022-09-02T07:52:32.102Z,98470.63
2022-09-02T07:56:34.808Z,98461.94
2022-09-02T08:00:37.917Z,98465.69
2022-09-02T08:04:45.696Z,98460.94
2022-09-02T08:08:48.946Z,98461.53
2022-09-02T08:12:52.013Z,98464.34
2022-09-02T08:16:57.593Z,98453.56
2022-09-02T08:21:00.507Z,98461.16
2022-09-02T08:25:05.498Z,98457.72
2022-09-02T08:29:10.226Z,98462.91
2022-09-02T08:33:15.207Z,98471.94
2022-09-02T08:37:21.636Z,98464.06
2022-09-02T08:41:42.540Z,98460.81
2022-09-02T08:45:46.097Z,98465.19
2022-09-02T08:49:56.386Z,98458.44
2022-09-02T08:54:09.713Z,98459.03
2022-09-02T08:58:18.737Z,98468.34
2022-09-02T09:02:47.989Z,98465.88
2022-09-02T09:07:11.550Z,98471.75
2022-09-02T09:11:25.698Z,98467.59
2022-09-02T09:15:47.796Z,98466.63
2022-09-02T09:19:54.440Z,98465.19
2022-09-02T09:24:01.158Z,98458.41
2022-09-02T09:28:04.000Z,98457.31
2022-09-02T09:32:38.838Z,98459.28
2022-09-02T09:36:43.578Z,98461.03
2022-09-02T09:40:46.989Z,98457.31
2022-09-02T09:44:49.347Z,98460.16
2022-09-02T09:48:51.724Z,98449.91
2022-09-02T09:52:54.417Z,98432.44
2022-09-02T09:57:16.173Z,98430.97
2022-09-02T10:01:32.065Z,98430.09
2022-09-02T10:05:40.536Z,98427.06
2022-09-02T10:09:43.752Z,98426.28
2022-09-02T10:13:48.065Z,98428.38
2022-09-02T10:18:46.053Z,98436.41
2022-09-02T10:23:18.381Z,98440.03
2022-09-02T10:27:29.479Z,98435.91
2022-09-02T10:31:50.479Z,98434.25
2022-09-02T10:36:16.762Z,98424.38
2022-09-02T10:40:27.512Z,98419.31
2022-09-02T10:44:48.692Z,98409.81
2022-09-02T10:49:05.767Z,98411.44
2022-09-02T10:53:34.588Z,98408.53
2022-09-02T10:57:48.374Z,98415.84
2022-09-02T11:02:16.669Z,98400.25
2022-09-02T11:06:40.113Z,98397.53
2022-09-02T11:10:57.117Z,98386.50
2022-09-02T11:15:17.613Z,98386.47
2022-09-02T11:19:37.728Z,98382.53
2022-09-02T11:23:58.686Z,98385.38
2022-09-02T11:28:30.265Z,98385.97
2022-09-02T11:32:59.589Z,98388.78
2022-09-02T11:37:12.124Z,98393.69
2022-09-02T11:45:56.900Z,98398.06
2022-09-02T11:50:09.806Z,98392.56
2022-09-02T11:54:19.235Z,98385.22
2022-09-02T11:58:39.533Z,98386.50
2022-09-02T12:02:54.213Z,98373.38
2022-09-02T12:07:08.229Z,98376.25
2022-09-02T12:11:42.786Z,98372.47
2022-09-02T12:56:50.817Z,98336.03
2022-09-02T13:01:00.599Z,98330.16
2022-09-02T13:05:18.882Z,98319.78
2022-09-02T13:09:46.609Z,98322.56
2022-09-02T13:14:09.406Z,98316.25
2022-09-02T13:18:35.896Z,98316.78
2022-09-02T13:23:15.734Z,98308.59
2022-09-02T13:27:41.393Z,98294.72
2022-09-02T13:32:02.009Z,98295.56
2022-09-02T13:36:08.663Z,98301.91
2022-09-02T13:40:36.829Z,98300.75
2022-09-02T13:44:39.454Z,98303.47
2022-09-02T13:48:43.382Z,98291.75
2022-09-02T13:57:26.891Z,98300.28
2022-09-02T14:01:38.268Z,98285.41
2022-09-02T14:05:47.450Z,98283.50
2022-09-02T14:09:52.599Z,98284.69
2022-09-02T14:13:56.484Z,98269.78
2022-09-02T14:18:18.336Z,98271.75
2022-09-02T14:22:36.732Z,98261.19
2022-09-02T14:26:43.475Z,98262.34
2022-09-02T14:31:03.476Z,98265.13
2022-09-02T14:35:18.188Z,98252.59
2022-09-02T14:39:20.733Z,98257.28
2022-09-02T14:43:23.912Z,98253.34
2022-09-02T14:47:30.001Z,98249.41
2022-09-02T14:51:35.673Z,98247.88
2022-09-02T14:55:47.856Z,98240.44
2022-09-02T14:59:52.418Z,98238.47
2022-09-02T15:03:54.517Z,98249.34
2022-09-02T15:07:59.088Z,98240.00
2022-09-02T15:12:02.983Z,98237.25
2022-09-02T15:16:06.327Z,98238.88
2022-09-02T15:20:11.288Z,98248.63
2022-09-02T15:24:16.738Z,98242.78
2022-09-02T15:28:19.830Z,98246.66
2022-09-02T15:32:23.522Z,98245.41
2022-09-02T15:36:27.759Z,98255.97
2022-09-02T15:40:31.721Z,98263.00
2022-09-02T15:44:33.835Z,98258.03
2022-09-02T15:48:37.124Z,98265.06
2022-09-02T15:52:41.131Z,98257.13
2022-09-02T15:56:45.619Z,98254.22
2022-09-02T16:00:47.858Z,98260.94
2022-09-02T16:04:52.114Z,98255.47
2022-09-02T16:08:54.744Z,98252.09
2022-09-02T16:12:59.865Z,98254.03
2022-09-02T16:17:02.663Z,98253.25
2022-09-02T16:21:08.263Z,98254.56
2022-09-02T16:25:12.179Z,98257.66
2022-09-02T16:29:18.573Z,98257.59
2022-09-02T16:33:21.762Z,98261.06
2022-09-02T16:37:23.970Z,98256.34
2022-09-02T16:41:36.372Z,98256.38
2022-09-02T16:45:38.502Z,98260.66
2022-09-02T16:49:40.919Z,98262.00
2022-09-02T16:53:43.956Z,98262.59
2022-09-02T16:57:46.733Z,98261.91
2022-09-02T17:01:50.571Z,98258.81
2022-09-02T17:05:54.722Z,98258.44
2022-09-02T17:09:56.905Z,98257.84
2022-09-02T17:14:02.264Z,98257.69
2022-09-02T17:18:07.930Z,98256.22
2022-09-02T17:22:10.773Z,98248.88
2022-09-02T17:26:17.428Z,98268.97
2022-09-02T17:30:19.676Z,98261.97
2022-09-02T17:34:22.538Z,98268.88
2022-09-02T17:38:27.281Z,98268.19
2022-09-02T17:42:30.307Z,98267.88
2022-09-02T17:46:32.374Z,98272.22
2022-09-02T17:50:35.593Z,98272.66
2022-09-02T17:54:40.530Z,98277.66
2022-09-02T17:59:00.827Z,98273.38
2022-09-02T18:03:15.409Z,98267.78
2022-09-02T18:07:27.772Z,98277.31
2022-09-02T18:11:31.020Z,98274.91
2022-09-02T18:16:05.403Z,98287.97
2022-09-02T18:20:09.450Z,98298.72
2022-09-02T18:24:28.404Z,98302.91
2022-09-02T18:28:45.309Z,98305.00
2022-09-02T18:32:58.688Z,98303.00
2022-09-02T18:37:11.133Z,98296.28
2022-09-02T18:41:46.419Z,98301.94
2022-09-02T18:45:54.673Z,98311.91
2022-09-02T18:50:01.767Z,98315.59
2022-09-02T18:54:26.699Z,98323.41
2022-09-02T18:58:39.925Z,98344.63
2022-09-02T19:02:51.890Z,98344.59
2022-09-02T19:07:14.397Z,98349.38
2022-09-02T19:11:18.570Z,98349.06
2022-09-02T19:15:21.098Z,98354.84
2022-09-02T19:19:27.545Z,98349.44
2022-09-02T19:23:30.779Z,98353.28
2022-09-02T19:27:36.559Z,98359.03
2022-09-02T19:31:41.213Z,98362.53
2022-09-02T19:35:47.083Z,98357.69
2022-09-02T19:39:51.677Z,98362.44
2022-09-02T19:43:55.012Z,98371.25
2022-09-02T19:48:09.308Z,98358.03
2022-09-02T19:52:12.826Z,98364.47
2022-09-02T19:56:16.322Z,98367.06
2022-09-02T20:00:19.782Z,98360.28
2022-09-02T20:04:22.874Z,98349.38
2022-09-02T20:08:34.949Z,98354.66
2022-09-02T20:12:37.690Z,98374.63
2022-09-02T20:16:39.750Z,98362.44
2022-09-02T20:20:46.217Z,98365.72
2022-09-02T20:24:52.564Z,98354.66
2022-09-02T20:29:03.935Z,98365.69
2022-09-02T20:33:19.362Z,98364.22
2022-09-02T20:37:50.780Z,98362.84
2022-09-02T20:42:31.030Z,98365.00
2022-09-02T20:46:47.652Z,98377.59
2022-09-02T20:51:14.311Z,98381.38
2022-09-02T20:55:25.731Z,98372.59
2022-09-02T20:59:44.091Z,98379.59
2022-09-02T21:04:09.339Z,98380.03
2022-09-02T21:08:25.132Z,98386.31
2022-09-02T21:12:40.383Z,98383.22
2022-09-02T21:16:58.306Z,98377.72
2022-09-02T21:21:26.078Z,98386.06
2022-09-02T21:25:38.500Z,98380.16
2022-09-02T21:29:49.008Z,98379.72
2022-09-02T21:34:00.991Z,98384.84
2022-09-02T21:38:09.305Z,98393.28
2022-09-02T21:42:20.287Z,98390.63
2022-09-02T21:46:48.136Z,98383.63
2022-09-02T21:50:58.971Z,98374.22
2022-09-02T21:55:44.847Z,98376.63
2022-09-02T22:00:10.479Z,98387.69
2022-09-02T22:04:25.233Z,98392.94
2022-09-02T22:08:39.825Z,98393.72
2022-09-02T22:12:52.190Z,98387.22
2022-09-02T22:16:59.141Z,98391.38
2022-09-02T22:21:48.628Z,98380.25
2022-09-02T22:25:51.401Z,98378.22
2022-09-02T22:30:11.018Z,98400.09
2022-09-02T22:34:17.075Z,98412.34
2022-09-02T22:38:46.357Z,98429.97
2022-09-02T22:42:54.463Z,98420.63
2022-09-02T22:47:25.021Z,98410.81
2022-09-02T22:51:52.698Z,98394.47
2022-09-02T22:56:04.610Z,98384.63
2022-09-02T23:00:13.406Z,98375.41
2022-09-02T23:04:47.429Z,98374.03
2022-09-02T23:08:56.617Z,98380.81
2022-09-02T23:13:31.560Z,98377.34
2022-09-02T23:17:49.621Z,98370.50
2022-09-02T23:22:03.807Z,98364.00
2022-09-02T23:26:12.152Z,98358.63
2022-09-02T23:30:14.783Z,98371.47
2022-09-02T23:34:58.089Z,98367.66
2022-09-02T23:39:13.815Z,98381.94
2022-09-02T23:43:21.306Z,98389.53
2022-09-02T23:47:37.751Z,98389.88
2022-09-02T23:51:46.862Z,98399.34
2022-09-02T23:56:08.896Z,98407.16
